Tiempo atmosférico en la estación meteorológica de Ballobar, Huesca (178 m.)



Fecha
DESCASC
Temp. máxima en grados centígrados (hora)
DESCASC
Temp. mínima en grados centígrados (hora)
DESCASC
Temp. media en grados centígrados
DESCASC
Racha de viento máxima en m/sg (hora)
DESCASC
Velocidad máxima media en intervalos de 10 minutos(hora)
DESCASC
Precipitaciones diarias en mm
DESCASC
Precipitaciones de 00:00 a 06:00 en mm
DESCASC
Precipitaciones de 06:00 a 12:00 en mm
DESCASC
Precipitaciones de 12:00 a 18:00 en mm
DESCASC
Precipitaciones de 18:00 a 24:00 en mm
DESCASC
06-12-2018 14 (15:30) 5.9 (23:40) 10 5.28 (17:30) 3.89 (17:10) 0 0 0 0 0
05-12-2018 9.9 (17:50) 6 (08:40) 7.9 5.28 (20:40) 3.33 (20:30) 0 0 0 0 0
04-12-2018 9.9 (19:30) 4.5 (06:20) 7.2 3.33 (11:20) 2.22 (11:20) 0 0 0 0 0
03-12-2018 13.7 (15:40) 2.7 (00:00) 8.2 5.28 (20:40) 3.33 (20:30) 0 0 0 0 0
02-12-2018 14.4 (16:10) 3.9 (00:00) 9.1 3.61 (13:40) 2.5 (13:40) 0 0 0 0 0
01-12-2018 14.1 (14:40) 4.5 (00:00) 9.3 9.17 (13:40) 6.39 (15:10) 0 0 0 0 0
30-11-2018 15.5 (14:00) 5.6 (00:00) 10.5 15.28 (13:20) 10.28 (15:40) 1 0.8 0 0.2 0
29-11-2018 10.8 (16:30) 0.2 (00:00) 5.5 3.33 (12:30) 2.5 (22:10) 0 0 0 0 0
28-11-2018 13.5 (15:50) 1 (00:00) 7.3 3.89 (13:30) 2.5 (00:20) 0 0 0 0 0
27-11-2018 16.1 (16:00) 4.8 (00:00) 10.5 15.28 (10:50) 9.17 (02:50) 0 0 0 0 0
26-11-2018 12.6 (14:30) 6 (04:00) 9.3 20.56 (15:10) 13.33 (16:50) 3.6 1.2 2.4 0 0
25-11-2018 13.3 (15:10) 1.9 (00:00) 7.6 10.28 (16:20) 6.11 (16:10) 2.8 2.4 0.4 0 0
24-11-2018 6.9 (16:30) 1 (00:00) 4 3.89 (12:30) 2.78 (12:30) 0 0 0 0 0
23-11-2018 10.9 (16:30) 3.8 (00:00) 7.3 6.94 (12:10) 4.72 (12:10) 1 0 0.8 0.2 0
22-11-2018 11.3 (15:30) 3.1 (00:00) 7.2 3.61 (10:40) 2.78 (10:50) 0 0 0 0 0
21-11-2018 12.5 (16:20) 3.8 (00:00) 8.1 3.33 (04:40) 2.5 (04:40) 0.2 0 0 0.2 0
20-11-2018 11.8 (14:20) 7.3 (00:00) 9.6 5.83 (15:00) 4.17 (16:20) 2.2 0 0.6 1.6 0
19-11-2018 13.8 (14:10) 9.2 (00:00) 11.5 6.39 (21:00) 4.72 (21:50) 0.4 0 0.4 0 0
18-11-2018 13.6 (16:00) 9.7 (00:00) 11.7 10.83 (14:10) 7.22 (14:10) 1.8 0 1.8 0 0
17-11-2018 14.4 (15:10) 11.2 (00:00) 12.8 6.67 (21:10) 4.72 (13:10) 0 0 0 0 0
16-11-2018 17.3 (15:30) 9.9 (00:00) 13.6 3.06 (07:20) 2.22 (11:20) 0 0 0 0 0
15-11-2018 17.4 (14:30) 10.7 (00:00) 14 8.33 (16:20) 5.83 (15:10) 0 0 0 0 0
14-11-2018 18.3 (15:30) 10.2 (00:00) 14.2 6.11 (15:10) 3.89 (15:10) 0 0 0 0 0
13-11-2018 19.2 (14:30) 9.1 (00:00) 14.2 3.89 (13:00) 2.5 (15:00) 0 0 0 0 0
12-11-2018 20.1 (15:30) 12.5 (00:00) 16.3 8.61 (11:40) 5.56 (12:10) 0 0 0 0 0
11-11-2018 19.4 (16:00) 8.5 (00:00) 13.9 7.78 (20:40) 5.28 (20:40) 0 0 0 0 0
10-11-2018 16.7 (14:50) 7.1 (00:00) 11.9 3.89 (10:50) 2.78 (10:40) 0.2 0 0 0.2 0
09-11-2018 16 (15:30) 8.1 (00:00) 12.1 14.72 (10:50) 8.89 (10:50) 7 7 0 0 0

Gráficas

Temp. máximas Temp. mínimas Temp. medias Precipitaciones Rachas de viento máximas Velocidades máximas media en intervalos de 10 minutos

Datos horarios

Fecha y hora oficial Temperatura (ºC) Velocidad del viento (km/h) Dirección del viento Racha (km/h) Dirección de racha Precipitación (mm) Presión (hPa) Tendencia (hPa) Humedad (%)
2018-12-08 23:00:00 7.3 9 Sudoeste 16 Oeste 0 -- -- 78
2018-12-08 22:00:00 7.5 10 Oeste 21 Sudoeste 0 -- -- 77
2018-12-08 21:00:00 9.3 13 Sudoeste 21 Sudoeste 0 -- -- 70
2018-12-08 20:00:00 9.1 12 Oeste 17 Sudoeste 0 -- -- 71
2018-12-08 19:00:00 9 10 Oeste 13 Oeste 0 -- -- 74
2018-12-08 18:00:00 11.1 9 Oeste 19 Oeste 0 -- -- 69
2018-12-08 17:00:00 13.8 11 Oeste 28 Oeste 0 -- -- 57
2018-12-08 16:00:00 14.9 15 Oeste 35 Oeste 0 -- -- 53
2018-12-08 15:00:00 14.8 19 Oeste 40 Noroeste 0 -- -- 53
2018-12-08 14:00:00 14.8 21 Oeste 42 Noroeste 0 -- -- 55
2018-12-08 13:00:00 14.2 21 Oeste 41 Oeste 0 -- -- 57
2018-12-08 12:00:00 13.4 24 Oeste 45 Oeste 0 -- -- 60
2018-12-08 11:00:00 12.5 26 Oeste 43 Oeste 0 -- -- 63
2018-12-08 10:00:00 11.2 23 Oeste 39 Oeste 0 -- -- 67
2018-12-08 09:00:00 10.4 21 Oeste 37 Oeste 0 -- -- 69
2018-12-08 08:00:00 10.3 20 Oeste 46 Oeste 0 -- -- 67
2018-12-08 07:00:00 10.9 26 Oeste 44 Noroeste 0 -- -- 66
2018-12-08 06:00:00 11.7 21 Oeste 38 Noroeste 0 -- -- 61
2018-12-08 05:00:00 12.2 22 Noroeste 48 Oeste 0 -- -- 58
2018-12-08 04:00:00 12.3 36 Oeste 53 Oeste 0 -- -- 59
2018-12-08 03:00:00 12.5 19 Oeste 54 Oeste 0 -- -- 60
2018-12-08 02:00:00 13 30 Oeste 63 Oeste 0 -- -- 61
2018-12-08 01:00:00 13.1 36 Oeste 55 Oeste 0 -- -- 67
2018-12-08 00:00:00 13.7 36 Oeste 60 Oeste 0 -- -- 68
2018-12-07 23:00:00 14.1 27 Oeste 51 Oeste 0 -- -- 69
2018-12-07 22:00:00 14.4 32 Oeste 52 Oeste 0 -- -- 67
2018-12-07 21:00:00 14.9 26 Oeste 41 Oeste 0 -- -- 66
2018-12-07 20:00:00 8.8 5 Norte 14 Norte 0 -- -- 87
2018-12-07 19:00:00 9.2 5 Noroeste 10 Noroeste 0 -- -- 86
2018-12-07 18:00:00 9.8 4 Oeste 10 Sudoeste 0 -- -- 84
2018-12-07 17:00:00 12.2 4 Oeste 6 Oeste 0 -- -- 77
2018-12-07 16:00:00 13.5 3 Sudeste 7 Sur 0 -- -- 70
2018-12-07 15:00:00 12.5 5 Este 10 Noroeste 0 -- -- 70
2018-12-07 14:00:00 11.2 5 Nordeste 14 Este 0 -- -- 76
2018-12-07 13:00:00 10 9 Nordeste 13 Este 0 -- -- 82
2018-12-07 12:00:00 9 8 Este 13 Norte 0 -- -- 87
2018-12-07 11:00:00 6.9 8 Nordeste 11 Nordeste 0 -- -- 97
2018-12-07 10:00:00 6 3 Este 11 Noroeste 0 -- -- 99
2018-12-07 09:00:00 5.5 5 Oeste 17 Oeste 0 -- -- 98
2018-12-07 08:00:00 5.7 6 Oeste 14 Oeste 0 -- -- 98
2018-12-07 07:00:00 6 10 Oeste 15 Oeste 0 -- -- 98
2018-12-07 06:00:00 5.8 6 Sudoeste 9 Sudoeste 0 -- -- 99
2018-12-07 05:00:00 5.8 0 Calma 7 Oeste 0 -- -- 99
2018-12-07 04:00:00 6.2 8 Oeste 13 Sudoeste 0 -- -- 99
2018-12-07 03:00:00 6.5 9 Oeste 13 Sudoeste 0 -- -- 99
2018-12-07 02:00:00 5.8 5 Sudoeste 15 Sudoeste 0 -- -- 99
2018-12-07 01:00:00 6.1 2 Oeste 9 Sur 0 -- -- 99
2018-12-07 00:00:00 6 2 Sudoeste 4 Sur 0 -- -- 99
2018-12-06 23:00:00 6.4 3 Sur 5 Este 0 -- -- 98
2018-12-06 22:00:00 7 4 Este 11 Nordeste 0 -- -- 98
2018-12-06 21:00:00 7.1 3 Este 10 Nordeste 0 -- -- 97
2018-12-06 20:00:00 8.3 4 Nordeste 18 Nordeste 0 -- -- 96
2018-12-06 19:00:00 9.4 6 Nordeste 18 Este 0 -- -- 94
2018-12-06 18:00:00 10.7 9 Nordeste 19 Este 0 -- -- 90
2018-12-06 17:00:00 12.8 9 Nordeste 18 Este 0 -- -- 83
2018-12-06 16:00:00 13.9 9 Nordeste 15 Este 0 -- -- 78
2018-12-06 15:00:00 13.7 8 Este 13 Este 0 -- -- 78
2018-12-06 14:00:00 12.8 6 Este 13 Este 0 -- -- 81
2018-12-06 13:00:00 11.7 6 Este 11 Este 0 -- -- 85
2018-12-06 12:00:00 10.5 5 Este 12 Este 0 -- -- 91
2018-12-06 11:00:00 9.1 5 Sudeste 12 Sudeste 0 -- -- 98
2018-12-06 10:00:00 8.5 6 Este 10 Este 0 -- -- 100
2018-12-06 09:00:00 7.9 2 Sudoeste 9 Sudoeste 0 -- -- 100
2018-12-06 08:00:00 7.7 3 Sudoeste 7 Sudoeste 0 -- -- 100
2018-12-06 07:00:00 7.4 5 Sudoeste 9 Sudoeste 0 -- -- 100
2018-12-06 06:00:00 7.2 8 Sudoeste 12 Sudoeste 0 -- -- 100
2018-12-06 05:00:00 7.3 6 Sudoeste 12 Sudoeste 0 -- -- 100
2018-12-06 04:00:00 7.1 5 Sudoeste 7 Noroeste 0 -- -- 100
2018-12-06 03:00:00 6.7 4 Oeste 7 Oeste 0 -- -- 100
2018-12-06 02:00:00 6.4 4 Sudoeste 13 Oeste 0 -- -- 100
2018-12-06 01:00:00 7.6 7 Oeste 13 Oeste 0 -- -- 100
2018-12-06 00:00:00 7.7 9 Sur 15 Sudoeste 0 -- -- 99
2018-12-05 23:00:00 8.2 5 Sudoeste 11 Oeste 0 -- -- 100
2018-12-05 22:00:00 8.1 5 Oeste 12 Sudoeste 0 -- -- 100
2018-12-05 21:00:00 7.8 8 Sudoeste 19 Sur 0 -- -- 99
2018-12-05 20:00:00 8.1 8 Sudoeste 15 Sudoeste 0 -- -- 99
2018-12-05 19:00:00 9 6 Sudoeste 14 Sudoeste 0 -- -- 99
2018-12-05 18:00:00 9.9 6 Sur 16 Sur 0 -- -- 99
2018-12-05 17:00:00 9.5 6 Sur 14 Sudoeste 0 -- -- 99
2018-12-05 16:00:00 9.6 10 Sudoeste 17 Sudoeste 0 -- -- 100
2018-12-05 15:00:00 8.3 4 Sudoeste 12 Sudoeste 0 -- -- 100
2018-12-05 14:00:00 7.7 3 Este 6 Este 0 -- -- 100
2018-12-05 13:00:00 6.7 5 Nordeste 9 Nordeste 0 -- -- 100
2018-12-05 12:00:00 6.6 4 Nordeste 7 Nordeste 0 -- -- 100
2018-12-05 11:00:00 6.3 2 Nordeste 6 Oeste 0 -- -- 100
2018-12-05 10:00:00 6 3 Sur 7 Sudoeste 0 -- -- 100
2018-12-05 09:00:00 6.1 3 Oeste 10 Oeste 0 -- -- 100
2018-12-05 08:00:00 6.3 8 Noroeste 13 Oeste 0 -- -- 100
2018-12-05 07:00:00 7.1 8 Noroeste 11 Noroeste 0 -- -- 100
2018-12-05 06:00:00 7.8 2 Este 7 Nordeste 0 -- -- 100
2018-12-05 05:00:00 8 3 Este 7 Nordeste 0 -- -- 100
2018-12-05 04:00:00 8.2 5 Noroeste 7 Noroeste 0 -- -- 99
2018-12-05 03:00:00 8.3 0 Calma 6 Norte 0 -- -- 100
2018-12-05 02:00:00 8.1 0 Calma 6 Noroeste 0 -- -- 99
2018-12-05 01:00:00 8.2 3 Este 8 Norte 0 -- -- 99
2018-12-05 00:00:00 8.4 3 Nordeste 7 Nordeste 0 -- -- 99
2018-12-04 23:00:00 8.9 4 Noroeste 10 Nordeste 0 -- -- 99
2018-12-04 22:00:00 9.3 6 Nordeste 10 Nordeste 0 -- -- 99
2018-12-04 21:00:00 9.7 6 Este 10 Este 0 -- -- 99
2018-12-04 20:00:00 9.8 4 Este 9 Este 0 -- -- 99
2018-12-04 19:00:00 9.8 3 Este 9 Nordeste 0 -- -- 99
2018-12-04 18:00:00 9.6 7 Este 12 Este 0 -- -- 99
2018-12-04 17:00:00 9.4 6 Este 10 Este 0 -- -- 99
2018-12-04 16:00:00 9.2 4 Este 10 Este 0 -- -- 100
2018-12-04 15:00:00 8.8 4 Este 7 Este 0 -- -- 100
2018-12-04 14:00:00 8.2 4 Este 8 Nordeste 0 -- -- 100
2018-12-04 13:00:00 7.5 5 Este 12 Nordeste 0 -- -- 99
2018-12-04 12:00:00 7 7 Este 12 Nordeste 0 -- -- 99
2018-12-04 11:00:00 6.4 7 Nordeste 11 Nordeste 0 -- -- 99
2018-12-04 10:00:00 5.8 4 Nordeste 6 Nordeste 0 -- -- 99
2018-12-04 09:00:00 5.4 2 Este 4 Este 0 -- -- 99
2018-12-04 08:00:00 5 0 Calma 3 Este 0 -- -- 98
2018-12-04 07:00:00 4.7 0 Calma 6 Este 0 -- -- 98
2018-12-04 06:00:00 4.7 2 Nordeste 6 Noroeste 0 -- -- 97
2018-12-04 05:00:00 5.4 0 Calma 4 Noroeste 0 -- -- 97
2018-12-04 04:00:00 6.1 0 Calma 8 Nordeste 0 -- -- 96
2018-12-04 03:00:00 6.9 2 Oeste 10 Oeste 0 -- -- 95
2018-12-04 02:00:00 7.5 4 Oeste 9 Oeste 0 -- -- 95
2018-12-04 01:00:00 8.3 8 Oeste 11 Oeste 0 -- -- 95
2018-12-04 00:00:00 8.7 7 Oeste 10 Oeste 0 -- -- 94
2018-12-03 23:00:00 9.1 2 Sudeste 10 Noroeste 0 -- -- 91
2018-12-03 22:00:00 10.5 4 Oeste 8 Oeste 0 -- -- 89
2018-12-03 21:00:00 12.4 3 Sur 19 Oeste 0 -- -- 80
2018-12-03 20:00:00 10.6 3 Noroeste 14 Nordeste 0 -- -- 87
2018-12-03 19:00:00 12 5 Oeste 15 Oeste 0 -- -- 83
2018-12-03 18:00:00 12 0 Calma 7 Oeste 0 -- -- 84
2018-12-03 17:00:00 13.2 0 Calma 3 Sur 0 -- -- 80
2018-12-03 16:00:00 13.6 0 Calma 8 Este 0 -- -- 75
2018-12-03 15:00:00 13.1 5 Este 8 Este 0 -- -- 76
2018-12-03 14:00:00 12.1 5 Este 11 Este 0 -- -- 80
2018-12-03 13:00:00 10.8 7 Este 12 Nordeste 0 -- -- 82
2018-12-03 12:00:00 8.5 6 Nordeste 10 Nordeste 0 -- -- 92
2018-12-03 11:00:00 5.9 6 Nordeste 15 Nordeste 0 -- -- 98
2018-12-03 10:00:00 4.3 8 Nordeste 9 Nordeste 0 -- -- 99
2018-12-03 09:00:00 2.8 0 Calma 6 Nordeste 0 -- -- 97
2018-12-03 08:00:00 3 0 Calma 6 Oeste 0 -- -- 98
2018-12-03 07:00:00 3.3 0 Calma 5 Noroeste 0 -- -- 97
2018-12-03 06:00:00 3.5 4 Nordeste 8 Nordeste 0 -- -- 96
2018-12-03 05:00:00 4.2 2 Norte 9 Nordeste 0 -- -- 96
2018-12-03 04:00:00 4.6 3 Sudoeste 6 Oeste 0 -- -- 96
2018-12-03 03:00:00 5.4 4 Norte 15 Oeste 0 -- -- 93
2018-12-03 02:00:00 5.3 5 Oeste 13 Oeste 0 -- -- 95
2018-12-03 01:00:00 6.2 3 Oeste 10 Oeste 0 -- -- 95
2018-12-03 00:00:00 6.3 4 Oeste 9 Oeste 0 -- -- 95
2018-12-02 23:00:00 6.7 3 Oeste 8 Oeste 0 -- -- 94
2018-12-02 22:00:00 6.9 3 Oeste 9 Oeste 0 -- -- 93
2018-12-02 21:00:00 7.9 4 Oeste 12 Oeste 0 -- -- 91
2018-12-02 20:00:00 8.6 5 Oeste 12 Oeste 0 -- -- 90
2018-12-02 19:00:00 9.3 6 Oeste 9 Oeste 0 -- -- 88
2018-12-02 18:00:00 10.8 4 Oeste 6 Noroeste 0 -- -- 84
2018-12-02 17:00:00 13.2 2 Oeste 6 Oeste 0 -- -- 78
2018-12-02 16:00:00 14.3 0 Calma 10 Este 0 -- -- 70
2018-12-02 15:00:00 13.7 5 Nordeste 9 Nordeste 0 -- -- 70
2018-12-02 14:00:00 13.5 7 Este 13 Este 0 -- -- 70
2018-12-02 13:00:00 11.6 6 Este 10 Nordeste 0 -- -- 78
2018-12-02 12:00:00 10 7 Nordeste 11 Nordeste 0 -- -- 84
2018-12-02 11:00:00 7.5 6 Nordeste 12 Este 0 -- -- 94
2018-12-02 10:00:00 5.6 8 Nordeste 12 Nordeste 0 -- -- 96
2018-12-02 09:00:00 4.4 0 Calma 5 Este 0 -- -- 98
2018-12-02 08:00:00 4.2 0 Calma 8 Nordeste 0 -- -- 96
2018-12-02 07:00:00 4.8 3 Noroeste 8 Oeste 0 -- -- 95
2018-12-02 06:00:00 5.9 4 Oeste 5 Oeste 0 -- -- 95
2018-12-02 05:00:00 6.2 0 Calma 4 Noroeste 0 -- -- 94
2018-12-02 04:00:00 6.1 0 Calma 5 Nordeste 0 -- -- 94
2018-12-02 03:00:00 6.1 4 Nordeste 5 Nordeste 0 -- -- 93
2018-12-02 02:00:00 6.1 0 Calma 4 Oeste 0 -- -- 93
2018-12-02 01:00:00 6 0 Calma 9 Nordeste 0 -- -- 92
2018-12-02 00:00:00 5.6 0 Calma 5 Noroeste 0 -- -- 91
2018-12-01 23:00:00 5.7 0 Calma 8 Oeste 0 -- -- 90
2018-12-01 22:00:00 6.7 0 Calma 8 Oeste 0 -- -- 86
2018-12-01 21:00:00 7.7 3 Oeste 10 Oeste 0 -- -- 82
2018-12-01 20:00:00 8.3 8 Oeste 14 Sudoeste 0 -- -- 80
2018-12-01 19:00:00 10.1 11 Sudoeste 18 Sudoeste 0 -- -- 72
2018-12-01 18:00:00 11.7 14 Sudoeste 17 Oeste 0 -- -- 64
2018-12-01 17:00:00 13.4 12 Sudoeste 28 Sudoeste 0 -- -- 60
2018-12-01 16:00:00 14.1 12 Sudoeste 33 Oeste 0 -- -- 58
2018-12-01 15:00:00 14.1 19 Oeste 30 Oeste 0 -- -- 55
2018-12-01 14:00:00 13.4 18 Oeste 33 Oeste 0 -- -- 58
2018-12-01 13:00:00 11.1 8 Nordeste 12 Nordeste 0 -- -- 73
2018-12-01 12:00:00 9.5 8 Este 12 Nordeste 0 -- -- 80
2018-12-01 11:00:00 7.2 5 Nordeste 7 Este 0 -- -- 88
2018-12-01 10:00:00 4.9 3 Nordeste 7 Nordeste 0 -- -- 92
2018-12-01 09:00:00 5.1 2 Norte 9 Sudoeste 0 -- -- 91
2018-12-01 08:00:00 4.7 5 Sudoeste 8 Oeste 0 -- -- 89
2018-12-01 07:00:00 5.1 5 Oeste 12 Oeste 0 -- -- 89
2018-12-01 06:00:00 5.3 10 Sudoeste 18 Oeste 0 -- -- 87
2018-12-01 05:00:00 5.6 10 Oeste 20 Sudoeste 0 -- -- 86
2018-12-01 04:00:00 5.8 10 Sudoeste 20 Sudoeste 0 -- -- 86
2018-12-01 03:00:00 6.9 12 Sudoeste 18 Sudoeste 0 -- -- 82
2018-12-01 02:00:00 8.3 10 Sudoeste 24 Oeste 0 -- -- 78
2018-12-01 01:00:00 9.5 12 Oeste 23 Oeste 0 -- -- 74
2018-12-01 00:00:00 9.8 13 Oeste 30 Noroeste 0 -- -- 73
2018-11-30 23:00:00 10.1 15 Noroeste 42 Oeste 0 -- -- 72
2018-11-30 22:00:00 10.4 23 Oeste 44 Oeste 0 -- -- 70
2018-11-30 21:00:00 10.8 28 Oeste 45 Oeste 0 -- -- 68
2018-11-30 20:00:00 11.5 24 Noroeste 47 Noroeste 0 -- -- 66
2018-11-30 19:00:00 12 26 Oeste 45 Oeste 0 -- -- 62
2018-11-30 18:00:00 12.7 29 Oeste 51 Noroeste 0 -- -- 56
2018-11-30 17:00:00 13.9 30 Oeste 50 Noroeste 0 -- -- 53
2018-11-30 16:00:00 14.7 32 Oeste 53 Oeste 0 -- -- 54
2018-11-30 15:00:00 15.2 29 Oeste 49 Oeste 0 -- -- 53
2018-11-30 14:00:00 15.5 27 Noroeste 55 Oeste 0 -- -- 53
2018-11-30 13:00:00 14.9 33 Oeste 53 Oeste 0.2 -- -- 58
2018-11-30 12:00:00 13.7 19 Noroeste 36 Noroeste 0 -- -- 67
2018-11-30 11:00:00 10.7 6 Sudoeste 14 Sudoeste 0 -- -- 85
2018-11-30 10:00:00 8.1 5 Nordeste 11 Nordeste 0 -- -- 96
2018-11-30 09:00:00 6.4 2 Noroeste 8 Noroeste 0 -- -- 96
2018-11-30 08:00:00 7.5 7 Oeste 15 Oeste 0 -- -- 96
2018-11-30 07:00:00 7.2 8 Sudoeste 17 Sudoeste 0 -- -- 97
2018-11-30 06:00:00 6.9 2 Oeste 13 Oeste 0 -- -- 98
2018-11-30 05:00:00 6.7 5 Sudeste 10 Nordeste 0 -- -- 97
2018-11-30 04:00:00 6.7 2 Sudeste 10 Norte 0.6 -- -- 96
2018-11-30 03:00:00 6.6 2 Oeste 18 Oeste 0.2 -- -- 97
2018-11-30 02:00:00 5.8 8 Sudoeste 18 Oeste 0 -- -- 97
2018-11-30 01:00:00 5.9 4 Norte 12 Oeste 0 -- -- 96
2018-11-30 00:00:00 6 4 Oeste 7 Oeste 0 -- -- 96
2018-11-29 23:00:00 6 0 Calma 10 Noroeste 0 -- -- 95
2018-11-29 22:00:00 6.6 6 Oeste 10 Noroeste 0 -- -- 94
2018-11-29 21:00:00 6.4 0 Calma 11 Oeste 0 -- -- 94
2018-11-29 20:00:00 6.6 4 Oeste 10 Noroeste 0 -- -- 94
2018-11-29 19:00:00 6.5 4 Noroeste 7 Oeste 0 -- -- 93
2018-11-29 18:00:00 7.5 3 Oeste 7 Noroeste 0 -- -- 89
2018-11-29 17:00:00 10.4 3 Nordeste 6 Nordeste 0 -- -- 79
2018-11-29 16:00:00 10.6 3 Nordeste 9 Nordeste 0 -- -- 77
2018-11-29 15:00:00 9.8 4 Nordeste 9 Este 0 -- -- 77
2018-11-29 14:00:00 8.7 3 Nordeste 10 Nordeste 0 -- -- 81
2018-11-29 13:00:00 7.3 7 Nordeste 12 Nordeste 0 -- -- 88
2018-11-29 12:00:00 5.5 6 Nordeste 9 Nordeste 0 -- -- 95
2018-11-29 11:00:00 3.3 5 Este 10 Nordeste 0 -- -- 98
2018-11-29 10:00:00 1.9 2 Este 5 Nordeste 0 -- -- 98
2018-11-29 09:00:00 0.7 2 Noroeste 4 Noroeste 0 -- -- 99
2018-11-29 08:00:00 0.4 0 Calma 9 Oeste 0 -- -- 97
2018-11-29 07:00:00 0.6 0 Calma 6 Noroeste 0 -- -- 98
2018-11-29 06:00:00 1.2 0 Calma 5 Noroeste 0 -- -- 99
2018-11-29 05:00:00 1.4 2 Sudoeste 6 Noroeste 0 -- -- 97
2018-11-29 04:00:00 1.6 4 Nordeste 5 Nordeste 0 -- -- 96
2018-11-29 03:00:00 2.3 2 Oeste 5 Oeste 0 -- -- 97
2018-11-29 02:00:00 2.9 2 Oeste 7 Oeste 0 -- -- 97
2018-11-29 01:00:00 3.1 4 Oeste 8 Oeste 0 -- -- 96
2018-11-29 00:00:00 3.5 0 Calma 5 Oeste 0 -- -- 96
2018-11-28 23:00:00 4 0 Calma 5 Oeste 0 -- -- 95
2018-11-28 22:00:00 4.7 3 Oeste 6 Oeste 0 -- -- 94
2018-11-28 21:00:00 5.7 3 Oeste 5 Oeste 0 -- -- 92
2018-11-28 14:00:00 -- -- -- -- -- -- -- -- --
2018-11-28 13:00:00 10.5 7 Este 10 Este 0 -- -- 72
2018-11-28 12:00:00 8.7 5 Este 11 Este 0 -- -- 76
2018-11-28 11:00:00 6.1 7 Nordeste 10 Nordeste 0 -- -- 89
2018-11-28 10:00:00 4.1 4 Este 7 Nordeste 0 -- -- 93
2018-11-28 09:00:00 2.1 2 Este 9 Oeste 0 -- -- 97
2018-11-28 08:00:00 1.4 6 Oeste 10 Noroeste 0 -- -- 96
2018-11-28 07:00:00 1.1 0 Calma 8 Oeste 0 -- -- 95
2018-11-28 06:00:00 1.6 3 Noroeste 10 Oeste 0 -- -- 94
2018-11-28 05:00:00 2 3 Oeste 10 Oeste 0 -- -- 93
2018-11-28 04:00:00 2.7 5 Oeste 11 Oeste 0 -- -- 91
2018-11-28 03:00:00 3.3 4 Noroeste 10 Oeste 0 -- -- 90
2018-11-28 02:00:00 4.1 7 Oeste 10 Oeste 0 -- -- 88
2018-11-28 01:00:00 4.3 8 Oeste 12 Oeste 0 -- -- 87
2018-11-28 00:00:00 4.8 8 Oeste 10 Oeste 0 -- -- 85
2018-11-27 23:00:00 5.7 7 Oeste 10 Oeste 0 -- -- 83
2018-11-27 22:00:00 5.8 4 Oeste 9 Oeste 0 -- -- 81
2018-11-27 21:00:00 6.9 3 Oeste 9 Oeste 0 -- -- 76
2018-11-27 20:00:00 8.2 3 Oeste 15 Oeste 0 -- -- 71
2018-11-27 19:00:00 10.1 12 Sudoeste 16 Sudoeste 0 -- -- 66
2018-11-27 18:00:00 11.7 11 Oeste 25 Oeste 0 -- -- 61
2018-11-27 17:00:00 14.9 8 Sudoeste 27 Oeste 0 -- -- 52
2018-11-27 16:00:00 16.1 14 Oeste 30 Oeste 0 -- -- 49
2018-11-27 15:00:00 15.6 22 Oeste 39 Oeste 0 -- -- 52
2018-11-27 14:00:00 15.3 26 Oeste 41 Oeste 0 -- -- 56
2018-11-27 13:00:00 14.8 18 Oeste 40 Oeste 0 -- -- 59
2018-11-27 12:00:00 13.4 26 Oeste 46 Oeste 0 -- -- 64
2018-11-27 11:00:00 12.6 29 Oeste 55 Oeste 0 -- -- 67
2018-11-27 10:00:00 11.1 22 Oeste 34 Oeste 0 -- -- 70
2018-11-27 09:00:00 9.1 12 Noroeste 28 Noroeste 0 -- -- 76
2018-11-27 08:00:00 8.6 13 Noroeste 40 Noroeste 0 -- -- 77
2018-11-27 07:00:00 8.7 14 Noroeste 41 Noroeste 0 -- -- 75
2018-11-27 06:00:00 9 27 Oeste 49 Oeste 0 -- -- 73
2018-11-27 05:00:00 8.9 28 Oeste 44 Oeste 0 -- -- 73
2018-11-27 04:00:00 9.1 28 Oeste 45 Oeste 0 -- -- 72
2018-11-27 03:00:00 9.3 31 Oeste 48 Oeste 0 -- -- 69
2018-11-27 02:00:00 8.8 16 Oeste 36 Oeste 0 -- -- 71
2018-11-27 01:00:00 9.3 24 Oeste 43 Oeste 0 -- -- 70
2018-11-27 00:00:00 9.5 26 Oeste 53 Oeste 0 -- -- 68
2018-11-26 23:00:00 9.8 34 Oeste 56 Oeste 0 -- -- 69
2018-11-26 22:00:00 9.9 28 Oeste 51 Oeste 0 -- -- 69
2018-11-26 21:00:00 10 35 Oeste 55 Oeste 0 -- -- 68
2018-11-26 20:00:00 10.1 39 Oeste 57 Oeste 0 -- -- 69
2018-11-26 19:00:00 10.4 34 Oeste 62 Oeste 0 -- -- 71
2018-11-26 18:00:00 10.4 34 Oeste 67 Oeste 0 -- -- 71
2018-11-26 17:00:00 11.2 44 Oeste 71 Oeste 0 -- -- 68
2018-11-26 16:00:00 12.2 39 Oeste 74 Oeste 0 -- -- 65
2018-11-26 15:00:00 12.4 41 Oeste 65 Oeste 0 -- -- 64
2018-11-26 14:00:00 12.4 40 Oeste 63 Oeste 0 -- -- 65
2018-11-26 13:00:00 12 28 Oeste 58 Noroeste 0 -- -- 70
2018-11-26 12:00:00 11 36 Oeste 58 Oeste 0 -- -- 73
2018-11-26 11:00:00 9.6 31 Oeste 51 Oeste 0 -- -- 80
2018-11-26 10:00:00 7.6 13 Oeste 32 Oeste 0 -- -- 90
2018-11-26 09:00:00 6.7 16 Oeste 23 Oeste 0 -- -- 95
2018-11-26 08:00:00 6.3 11 Noroeste 26 Noroeste 1 -- -- 95
2018-11-26 07:00:00 6.1 12 Oeste 17 Oeste 1.4 -- -- 96
2018-11-26 06:00:00 6 4 Nordeste 6 Nordeste 0.6 -- -- 96
2018-11-26 05:00:00 6.1 0 Calma 8 Nordeste 0.4 -- -- 94
2018-11-26 04:00:00 6 4 Nordeste 14 Nordeste 0 -- -- 94
2018-11-26 03:00:00 6.3 5 Nordeste 16 Norte 0.2 -- -- 93
2018-11-26 02:00:00 6.8 9 Sudoeste 14 Sudoeste 0 -- -- 91
2018-11-26 01:00:00 6.7 4 Oeste 15 Sudoeste 0 -- -- 89
2018-11-26 00:00:00 6.6 10 Oeste 17 Sudoeste 0 -- -- 88
2018-11-25 23:00:00 7.1 10 Oeste 20 Sudoeste 0 -- -- 86
2018-11-25 22:00:00 7.3 12 Sudoeste 15 Sudoeste 0 -- -- 84
2018-11-25 21:00:00 6.9 4 Oeste 17 Sudoeste 0 -- -- 83
2018-11-25 20:00:00 8.3 10 Oeste 24 Sudoeste 0 -- -- 77
2018-11-25 19:00:00 9.3 15 Sudoeste 25 Sudoeste 0 -- -- 73
2018-11-25 18:00:00 10 17 Oeste 25 Oeste 0 -- -- 73
2018-11-25 17:00:00 12.1 14 Oeste 37 Oeste 0 -- -- 68
2018-11-25 16:00:00 13.3 17 Oeste 29 Oeste 0 -- -- 65
2018-11-25 15:00:00 13.1 19 Oeste 33 Oeste 0 -- -- 73
2018-11-25 14:00:00 12.1 18 Oeste 32 Oeste 0 -- -- 76
2018-11-25 13:00:00 10 9 Oeste 20 Oeste 0 -- -- 88
2018-11-25 12:00:00 7.2 9 Oeste 16 Noroeste 0 -- -- 100
2018-11-25 11:00:00 5.9 3 Sudeste 6 Sur 0 -- -- 100
2018-11-25 10:00:00 4.9 5 Este 8 Este 0 -- -- 100
2018-11-25 09:00:00 3.6 2 Sudeste 8 Norte 0 -- -- 100
2018-11-25 08:00:00 3 6 Nordeste 12 Nordeste 0 -- -- 100
2018-11-25 07:00:00 3 7 Nordeste 14 Este 0.4 -- -- 100
2018-11-25 06:00:00 2.9 8 Nordeste 13 Nordeste 2.4 -- -- 100
2018-11-25 05:00:00 2.4 4 Oeste 6 Sudoeste 0 -- -- 100
2018-11-25 04:00:00 2.2 4 Sudoeste 7 Sudoeste 0 -- -- 100
2018-11-25 03:00:00 2.3 3 Sudoeste 8 Sudoeste 0 -- -- 100
2018-11-25 02:00:00 2.1 4 Oeste 7 Oeste 0 -- -- 100
2018-11-25 01:00:00 2.2 0 Calma 12 Nordeste 0 -- -- 100
2018-11-25 00:00:00 2 4 Nordeste 9 Nordeste 0 -- -- 99
2018-11-24 23:00:00 2.7 0 Calma 5 Noroeste 0 -- -- 99
2018-11-24 22:00:00 3.3 2 Noroeste 9 Nordeste 0 -- -- 99
2018-11-24 21:00:00 4.1 4 Oeste 9 Oeste 0 -- -- 98
2018-11-24 20:00:00 5.5 5 Oeste 13 Oeste 0 -- -- 98
2018-11-24 19:00:00 5.5 8 Oeste 10 Oeste 0 -- -- 99
2018-11-24 18:00:00 5.8 3 Este 7 Nordeste 0 -- -- 99
2018-11-24 17:00:00 6.5 5 Nordeste 8 Sudeste 0 -- -- 99
2018-11-24 16:00:00 6.8 3 Sudoeste 8 Nordeste 0 -- -- 100
2018-11-24 15:00:00 6 2 Oeste 10 Este 0 -- -- 100
2018-11-24 14:00:00 5.7 4 Este 14 Este 0 -- -- 100
2018-11-24 13:00:00 5.1 9 Este 14 Este 0 -- -- 100
2018-11-24 12:00:00 4.2 10 Este 13 Este 0 -- -- 100
2018-11-24 11:00:00 3.1 9 Nordeste 13 Nordeste 0 -- -- 100
2018-11-24 10:00:00 1.9 6 Nordeste 9 Nordeste 0 -- -- 100
2018-11-24 09:00:00 1.2 5 Nordeste 8 Este 0 -- -- 100
2018-11-24 08:00:00 1.3 6 Oeste 10 Oeste 0 -- -- 100
2018-11-24 07:00:00 2 8 Oeste 11 Oeste 0 -- -- 100
2018-11-24 06:00:00 2.1 7 Oeste 9 Oeste 0 -- -- 100
2018-11-24 05:00:00 2.9 0 Calma 9 Este 0 -- -- 100
2018-11-24 04:00:00 3.5 4 Este 10 Sudoeste 0 -- -- 100
2018-11-24 03:00:00 2.9 6 Sudoeste 8 Sudoeste 0 -- -- 99
2018-11-24 02:00:00 2.7 3 Oeste 11 Nordeste 0 -- -- 99
2018-11-24 01:00:00 3 0 Calma 7 Oeste 0 -- -- 98
2018-11-24 00:00:00 3.8 2 Noroeste 8 Oeste 0 -- -- 98
2018-11-23 23:00:00 4.5 4 Oeste 9 Noroeste 0 -- -- 98
2018-11-23 22:00:00 5.3 3 Sudoeste 7 Oeste 0 -- -- 98
2018-11-23 21:00:00 6.2 3 Oeste 9 Oeste 0 -- -- 98
2018-11-23 20:00:00 7 9 Oeste 12 Oeste 0 -- -- 97
2018-11-23 19:00:00 7.6 4 Oeste 7 Noroeste 0 -- -- 96
2018-11-23 18:00:00 8.8 3 Noroeste 8 Noroeste 0 -- -- 94
2018-11-23 17:00:00 10.7 3 Oeste 14 Noroeste 0 -- -- 93
2018-11-23 16:00:00 10.6 3 Sudoeste 6 Sudoeste 0 -- -- 92
2018-11-23 15:00:00 10.4 3 Sudeste 6 Oeste 0 -- -- 96
2018-11-23 14:00:00 9.9 3 Sudoeste 6 Sudoeste 0.2 -- -- 99
2018-11-23 13:00:00 9.2 3 Este 25 Oeste 0 -- -- 98
2018-11-23 12:00:00 8.9 11 Noroeste 17 Oeste 0 -- -- 99
2018-11-23 11:00:00 8.3 4 Sudoeste 7 Sudeste 0.2 -- -- 100
2018-11-23 10:00:00 7.6 0 Calma 4 Este 0 -- -- 100
2018-11-23 09:00:00 7.3 4 Este 5 Este 0.2 -- -- 99
2018-11-23 08:00:00 7.1 0 Calma 6 Este 0 -- -- 99
2018-11-23 07:00:00 6.9 3 Nordeste 8 Este 0.4 -- -- 99
2018-11-23 06:00:00 6.9 2 Norte 7 Noroeste 0 -- -- 99
2018-11-23 05:00:00 6.6 4 Noroeste 5 Oeste 0 -- -- 99
2018-11-23 04:00:00 6.6 4 Noroeste 5 Noroeste 0 -- -- 99
2018-11-23 03:00:00 6.6 3 Noroeste 6 Noroeste 0 -- -- 99
2018-11-23 02:00:00 6.5 4 Oeste 5 Oeste 0 -- -- 98
2018-11-23 01:00:00 6.9 5 Oeste 7 Oeste 0 -- -- 98
2018-11-23 00:00:00 7.3 4 Este 7 Este 0 -- -- 98
2018-11-22 23:00:00 7.5 3 Este 5 Oeste 0 -- -- 97
2018-11-22 22:00:00 7.7 5 Noroeste 6 Oeste 0 -- -- 97
2018-11-22 21:00:00 8.1 3 Noroeste 6 Noroeste 0 -- -- 96
2018-11-22 20:00:00 8.8 2 Oeste 4 Oeste 0 -- -- 95
2018-11-22 19:00:00 9.2 0 Calma 3 Noroeste 0 -- -- 93
2018-11-22 18:00:00 10.1 0 Calma 5 Noroeste 0 -- -- 91
2018-11-22 17:00:00 11.1 0 Calma 9 Nordeste 0 -- -- 87
2018-11-22 16:00:00 11.3 8 Nordeste 9 Nordeste 0 -- -- 87
2018-11-22 15:00:00 10.8 7 Nordeste 10 Este 0 -- -- 88
2018-11-22 14:00:00 10.4 5 Nordeste 8 Este 0 -- -- 92
2018-11-22 13:00:00 9.2 5 Este 9 Este 0 -- -- 94
2018-11-22 12:00:00 9.1 5 Este 11 Nordeste 0 -- -- 97
2018-11-22 11:00:00 7.7 8 Nordeste 13 Nordeste 0 -- -- 100
2018-11-22 10:00:00 5.6 6 Nordeste 10 Nordeste 0 -- -- 100
2018-11-22 09:00:00 4 0 Calma 9 Noroeste 0 -- -- 100
2018-11-22 08:00:00 3.4 4 Oeste 9 Noroeste 0 -- -- 99
2018-11-22 07:00:00 3.2 4 Oeste 9 Oeste 0 -- -- 99
2018-11-22 06:00:00 3.5 3 Sudoeste 8 Nordeste 0 -- -- 99
2018-11-22 05:00:00 3.9 3 Oeste 10 Oeste 0 -- -- 98
2018-11-22 04:00:00 3.9 4 Oeste 9 Oeste 0 -- -- 98
2018-11-22 03:00:00 4.2 3 Oeste 9 Noroeste 0 -- -- 98
2018-11-22 02:00:00 5.1 3 Oeste 9 Oeste 0 -- -- 98
2018-11-22 01:00:00 5.5 3 Noroeste 8 Noroeste 0 -- -- 98
2018-11-22 00:00:00 5.9 3 Oeste 8 Noroeste 0 -- -- 98
2018-11-21 23:00:00 6.7 3 Noroeste 5 Oeste 0 -- -- 98
2018-11-21 22:00:00 7.1 3 Oeste 8 Noroeste 0 -- -- 98
2018-11-21 21:00:00 7.4 3 Oeste 8 Noroeste 0 -- -- 97
2018-11-21 20:00:00 8 2 Oeste 5 Noroeste 0 -- -- 96
2018-11-21 19:00:00 9.4 3 Norte 8 Noroeste 0 -- -- 95
2018-11-21 18:00:00 11.3 0 Calma 5 Sudoeste 0.2 -- -- 91
2018-11-21 17:00:00 12.3 4 Noroeste 7 Este 0 -- -- 88
2018-11-21 16:00:00 12.2 3 Nordeste 9 Nordeste 0 -- -- 90
2018-11-21 15:00:00 10.2 3 Este 9 Nordeste 0 -- -- 98
2018-11-21 14:00:00 8.4 3 Nordeste 7 Norte 0 -- -- 100
2018-11-21 13:00:00 7.6 4 Norte 9 Norte 0 -- -- 100
2018-11-21 12:00:00 6.7 4 Nordeste 8 Nordeste 0 -- -- 100
2018-11-21 11:00:00 5.8 6 Nordeste 10 Nordeste 0 -- -- 100
2018-11-21 10:00:00 5.5 3 Este 6 Este 0 -- -- 100
2018-11-21 09:00:00 4.7 0 Calma 4 Este 0 -- -- 99
2018-11-21 08:00:00 4.2 2 Nordeste 5 Nordeste 0 -- -- 99
2018-11-21 07:00:00 3.9 0 Calma 6 Nordeste 0 -- -- 98
2018-11-21 06:00:00 4.3 2 Nordeste 8 Oeste 0 -- -- 98
2018-11-21 05:00:00 4.7 4 Noroeste 12 Oeste 0 -- -- 98
2018-11-21 04:00:00 4.8 5 Oeste 10 Oeste 0 -- -- 97
2018-11-21 03:00:00 5.3 5 Oeste 8 Oeste 0 -- -- 97
2018-11-21 02:00:00 5.8 4 Oeste 7 Oeste 0 -- -- 97
2018-11-21 01:00:00 6.6 2 Oeste 5 Noroeste 0 -- -- 96
2018-11-21 00:00:00 7.7 0 Calma 7 Sudoeste 0 -- -- 96
2018-11-20 23:00:00 7.8 3 Noroeste 8 Oeste 0 -- -- 97
2018-11-20 22:00:00 7.9 4 Sudoeste 12 Oeste 0 -- -- 97
2018-11-20 21:00:00 8.4 2 Sudoeste 6 Sudoeste 0 -- -- 97
2018-11-20 20:00:00 8.3 3 Oeste 8 Oeste 0 -- -- 97
2018-11-20 19:00:00 8.2 7 Oeste 12 Oeste 0 -- -- 96
2018-11-20 18:00:00 9.2 4 Noroeste 10 Nordeste 0.4 -- -- 93
2018-11-20 17:00:00 10.5 6 Oeste 21 Oeste 1 -- -- 92
2018-11-20 16:00:00 11.5 12 Este 20 Nordeste 0 -- -- 82
2018-11-20 15:00:00 11.6 14 Este 21 Este 0 -- -- 82
2018-11-20 14:00:00 11.5 11 Este 17 Este 0 -- -- 84
2018-11-20 13:00:00 9.8 4 Nordeste 9 Nordeste 0.2 -- -- 91
2018-11-20 12:00:00 8.9 3 Este 10 Este 0 -- -- 94
2018-11-20 11:00:00 8.5 6 Este 10 Nordeste 0.6 -- -- 95
2018-11-20 10:00:00 7.9 4 Oeste 9 Nordeste 0 -- -- 95
2018-11-20 09:00:00 7.5 2 Sudoeste 6 Nordeste 0 -- -- 96
2018-11-20 08:00:00 7.5 0 Calma 6 Este 0 -- -- 95
2018-11-20 07:00:00 7.3 3 Oeste 7 Este 0 -- -- 96
2018-11-20 06:00:00 7.3 3 Nordeste 9 Nordeste 0 -- -- 95
2018-11-20 05:00:00 8.1 5 Oeste 12 Sudoeste 0 -- -- 93
2018-11-20 04:00:00 8.2 2 Oeste 12 Oeste 0 -- -- 92
2018-11-20 03:00:00 8.3 7 Oeste 14 Sudoeste 0 -- -- 94
2018-11-20 02:00:00 8.4 7 Oeste 16 Oeste 0 -- -- 94
2018-11-20 01:00:00 8 4 Sudoeste 17 Oeste 0 -- -- 95
2018-11-20 00:00:00 9.2 12 Oeste 22 Sudoeste 0 -- -- 92
2018-11-19 23:00:00 9.4 12 Oeste 22 Sudoeste 0 -- -- 92
2018-11-19 22:00:00 9.9 16 Sudoeste 23 Sudoeste 0 -- -- 91
2018-11-19 21:00:00 10.9 15 Sudoeste 23 Sudoeste 0 -- -- 87
2018-11-19 20:00:00 11.1 11 Sudoeste 21 Sudoeste 0 -- -- 87
2018-11-19 19:00:00 11.3 10 Oeste 18 Sudoeste 0 -- -- 86
2018-11-19 18:00:00 12.4 12 Sudoeste 19 Sudoeste 0 -- -- 82
2018-11-19 17:00:00 12.7 6 Oeste 11 Sudoeste 0 -- -- 78
2018-11-19 16:00:00 13.7 4 Sur 13 Sudoeste 0 -- -- 72
2018-11-19 15:00:00 13.4 9 Sudoeste 15 Sudoeste 0 -- -- 71
2018-11-19 14:00:00 13.5 2 Sudeste 8 Sudeste 0 -- -- 72
2018-11-19 13:00:00 12.8 2 Este 9 Noroeste 0 -- -- 72
2018-11-19 12:00:00 12.1 6 Noroeste 14 Noroeste 0 -- -- 81
2018-11-19 11:00:00 11.7 4 Oeste 12 Noroeste 0 -- -- 84
2018-11-19 10:00:00 10.4 0 Calma 5 Sudoeste 0 -- -- 92
2018-11-19 09:00:00 9.7 0 Calma 3 Nordeste 0.2 -- -- 92
2018-11-19 08:00:00 9.8 0 Calma 15 Noroeste 0.2 -- -- 89
2018-11-19 07:00:00 10.1 5 Nordeste 7 Nordeste 0 -- -- 87
2018-11-19 06:00:00 10.7 3 Nordeste 13 Nordeste 0 -- -- 82
2018-11-19 05:00:00 11.1 12 Este 15 Nordeste 0 -- -- 79
2018-11-19 04:00:00 11.3 12 Nordeste 19 Este 0 -- -- 79
2018-11-19 03:00:00 11.3 4 Este 15 Este 0 -- -- 80
2018-11-19 02:00:00 11.5 9 Nordeste 13 Este 0 -- -- 79
2018-11-19 01:00:00 11.7 9 Este 23 Nordeste 0 -- -- 78
2018-11-19 00:00:00 11.7 8 Este 20 Este 0 -- -- 78
2018-11-18 23:00:00 11.5 0 Calma 13 Nordeste 0 -- -- 79
2018-11-18 22:00:00 11.4 9 Este 31 Nordeste 0 -- -- 80
2018-11-18 21:00:00 11.4 17 Nordeste 24 Este 0 -- -- 80
2018-11-18 20:00:00 11.7 15 Este 31 Este 0 -- -- 79
2018-11-18 19:00:00 12.2 22 Este 36 Este 0 -- -- 76
2018-11-18 18:00:00 12.5 17 Nordeste 32 Este 0 -- -- 76
2018-11-18 17:00:00 13.1 20 Este 31 Este 0 -- -- 72
2018-11-18 16:00:00 13.6 17 Este 33 Este 0 -- -- 73
2018-11-18 15:00:00 13.5 19 Este 39 Este 0 -- -- 75
2018-11-18 14:00:00 13 23 Este 36 Nordeste 0 -- -- 77
2018-11-18 13:00:00 11.6 4 Oeste 7 Noroeste 0 -- -- 85
2018-11-18 12:00:00 10.7 6 Este 16 Este 0.4 -- -- 89
2018-11-18 11:00:00 9.9 4 Sudeste 14 Sudeste 0.8 -- -- 89
2018-11-18 10:00:00 9.9 4 Sudeste 26 Este 0.6 -- -- 86
2018-11-18 09:00:00 10 17 Este 26 Este 0 -- -- 84
2018-11-18 08:00:00 10.2 17 Este 31 Este 0 -- -- 86
2018-11-18 07:00:00 10.7 14 Este 26 Este 0 -- -- 86
2018-11-18 06:00:00 10.8 8 Este 22 Este 0 -- -- 87
2018-11-18 05:00:00 10.9 12 Sudeste 26 Este 0 -- -- 87
2018-11-18 04:00:00 11.2 15 Sudeste 28 Este 0 -- -- 87
2018-11-18 03:00:00 11.4 7 Sudeste 19 Este 0 -- -- 87
2018-11-18 02:00:00 11.5 6 Este 22 Este 0 -- -- 88
2018-11-18 01:00:00 11.8 10 Este 21 Este 0 -- -- 87
2018-11-18 00:00:00 12.1 10 Este 18 Este 0 -- -- 88
2018-11-17 23:00:00 12.2 7 Este 17 Este 0 -- -- 88
2018-11-17 22:00:00 12.4 10 Este 24 Este 0 -- -- 87
2018-11-17 21:00:00 12.8 12 Este 21 Este 0 -- -- 86
2018-11-17 20:00:00 13.1 9 Este 19 Este 0 -- -- 86
2018-11-17 19:00:00 12.9 10 Este 16 Este 0 -- -- 88
2018-11-17 18:00:00 13.2 5 Nordeste 14 Este 0 -- -- 86
2018-11-17 17:00:00 13.6 10 Este 18 Este 0 -- -- 84
2018-11-17 16:00:00 14.1 12 Este 19 Este 0 -- -- 81
2018-11-17 15:00:00 14.3 11 Este 24 Este 0 -- -- 80
2018-11-17 14:00:00 13.9 12 Este 23 Este 0 -- -- 83
2018-11-17 13:00:00 13.8 15 Este 21 Este 0 -- -- 84
2018-11-17 12:00:00 13.1 8 Nordeste 12 Este 0 -- -- 95
2018-11-17 11:00:00 12.5 3 Este 5 Este 0 -- -- 96
2018-11-17 10:00:00 12.1 0 Calma 6 Este 0 -- -- 97
2018-11-17 09:00:00 11.7 0 Calma 7 Norte 0 -- -- 97
2018-11-17 08:00:00 11.8 2 Este 4 Nordeste 0 -- -- 97
2018-11-17 07:00:00 11.7 0 Calma 3 Oeste 0 -- -- 97
2018-11-17 06:00:00 11.7 0 Calma 3 Noroeste 0 -- -- 97
2018-11-17 05:00:00 11.5 0 Calma 5 Nordeste 0 -- -- 97
2018-11-17 04:00:00 11.6 3 Este 5 Nordeste 0 -- -- 97
2018-11-17 03:00:00 11.6 0 Calma 5 Nordeste 0 -- -- 97
2018-11-17 02:00:00 11.4 0 Calma 8 Nordeste 0 -- -- 97
2018-11-17 01:00:00 11.6 2 Oeste 3 Oeste 0 -- -- 97
2018-11-17 00:00:00 11.2 0 Calma 5 Nordeste 0 -- -- 96
2018-11-16 23:00:00 11 2 Oeste 7 Nordeste 0 -- -- 96
2018-11-16 22:00:00 11.1 0 Calma 6 Noroeste 0 -- -- 95
2018-11-16 21:00:00 12.2 3 Oeste 9 Oeste 0 -- -- 93
2018-11-16 20:00:00 12.4 5 Oeste 9 Sudoeste 0 -- -- 92
2018-11-16 19:00:00 12.7 0 Calma 7 Noroeste 0 -- -- 91
2018-11-16 18:00:00 14 0 Calma 5 Oeste 0 -- -- 88
2018-11-16 17:00:00 16.4 0 Calma 5 Nordeste 0 -- -- 81
2018-11-16 16:00:00 17.2 3 Nordeste 7 Este 0 -- -- 76
2018-11-16 15:00:00 16.7 4 Este 8 Este 0 -- -- 79
2018-11-16 14:00:00 15.8 3 Este 10 Nordeste 0 -- -- 80
2018-11-16 13:00:00 14.9 6 Nordeste 9 Este 0 -- -- 82
2018-11-16 12:00:00 14 5 Nordeste 9 Nordeste 0 -- -- 88
2018-11-16 11:00:00 13.5 5 Nordeste 8 Este 0 -- -- 89
2018-11-16 10:00:00 11.8 5 Este 9 Este 0 -- -- 99
2018-11-16 09:00:00 10.5 2 Nordeste 7 Nordeste 0 -- -- 99
2018-11-16 08:00:00 10.1 4 Noroeste 11 Nordeste 0 -- -- 98
2018-11-16 07:00:00 10.1 0 Calma 3 Este 0 -- -- 97
2018-11-16 06:00:00 11 3 Nordeste 5 Noroeste 0 -- -- 97
2018-11-16 05:00:00 11 2 Nordeste 6 Oeste 0 -- -- 97
2018-11-16 04:00:00 11.1 5 Oeste 6 Oeste 0 -- -- 97
2018-11-16 03:00:00 11 3 Oeste 8 Nordeste 0 -- -- 96
2018-11-16 02:00:00 11 2 Sudoeste 5 Oeste 0 -- -- 96
2018-11-16 01:00:00 10.7 3 Oeste 9 Noroeste 0 -- -- 96
2018-11-16 00:00:00 10.8 3 Oeste 8 Sudoeste 0 -- -- 96
2018-11-15 23:00:00 11 3 Noroeste 6 Noroeste 0 -- -- 94
2018-11-15 22:00:00 12 0 Calma 7 Oeste 0 -- -- 91
2018-11-15 21:00:00 14.1 6 Nordeste 9 Este 0 -- -- 86
2018-11-15 20:00:00 14.1 6 Nordeste 15 Nordeste 0 -- -- 88
2018-11-15 19:00:00 14.5 11 Nordeste 21 Este 0 -- -- 88
2018-11-15 18:00:00 15 14 Este 21 Este 0 -- -- 85
2018-11-15 17:00:00 15.7 6 Este 30 Este 0 -- -- 81
2018-11-15 16:00:00 16 15 Este 29 Este 0 -- -- 79
2018-11-15 15:00:00 16.9 20 Este 28 Nordeste 0 -- -- 76
2018-11-15 14:00:00 17.2 7 Este 21 Este 0 -- -- 81
2018-11-15 13:00:00 15.8 12 Este 18 Este 0 -- -- 86
2018-11-15 12:00:00 15.6 4 Este 6 Este 0 -- -- 85
2018-11-15 11:00:00 14.7 3 Este 6 Este 0 -- -- 89
2018-11-15 10:00:00 13.6 0 Calma 8 Nordeste 0 -- -- 93
2018-11-15 09:00:00 12.4 2 Sur 5 Noroeste 0 -- -- 98
2018-11-15 08:00:00 11.2 0 Calma 4 Noroeste 0 -- -- 97
2018-11-15 07:00:00 11.6 0 Calma 5 Sudeste 0 -- -- 98
2018-11-15 06:00:00 11.3 2 Sudeste 5 Oeste 0 -- -- 97
2018-11-15 05:00:00 11.4 0 Calma 6 Este 0 -- -- 97
2018-11-15 04:00:00 11.5 0 Calma 4 Noroeste 0 -- -- 97
2018-11-15 03:00:00 11.2 3 Este 6 Nordeste 0 -- -- 96
2018-11-15 02:00:00 11.4 0 Calma 6 Oeste 0 -- -- 96
2018-11-15 01:00:00 11.7 2 Oeste 5 Oeste 0 -- -- 96
2018-11-15 00:00:00 11.7 0 Calma 4 Noroeste 0 -- -- 96
2018-11-14 23:00:00 11.6 0 Calma 5 Oeste 0 -- -- 96
2018-11-14 22:00:00 11.6 0 Calma 8 Noroeste 0 -- -- 95
2018-11-14 21:00:00 12.1 3 Oeste 7 Noroeste 0 -- -- 93
2018-11-14 20:00:00 12.9 5 Oeste 7 Noroeste 0 -- -- 91
2018-11-14 19:00:00 13.8 2 Oeste 6 Noroeste 0 -- -- 89
2018-11-14 18:00:00 15.3 4 Oeste 8 Este 0 -- -- 84
2018-11-14 17:00:00 17.2 5 Nordeste 10 Este 0 -- -- 75
2018-11-14 16:00:00 18.1 7 Este 22 Este 0 -- -- 72
2018-11-14 15:00:00 18 14 Este 21 Este 0 -- -- 72
2018-11-14 14:00:00 17.9 10 Este 15 Este 0 -- -- 77
2018-11-14 13:00:00 16.5 5 Este 9 Este 0 -- -- 82
2018-11-14 12:00:00 15 5 Este 8 Este 0 -- -- 88
2018-11-14 11:00:00 13.4 0 Calma 8 Nordeste 0 -- -- 96
2018-11-14 10:00:00 11.8 5 Nordeste 8 Nordeste 0 -- -- 97
2018-11-14 09:00:00 10.9 0 Calma 4 Este 0 -- -- 98
2018-11-14 08:00:00 10.3 3 Oeste 7 Oeste 0 -- -- 97
2018-11-14 07:00:00 10.5 4 Noroeste 5 Oeste 0 -- -- 96
2018-11-14 06:00:00 11.4 2 Noroeste 4 Oeste 0 -- -- 96
2018-11-14 05:00:00 12 0 Calma 4 Nordeste 0 -- -- 96
2018-11-14 04:00:00 12.3 0 Calma 6 Oeste 0 -- -- 96
2018-11-14 03:00:00 12.3 0 Calma 4 Noroeste 0 -- -- 96
2018-11-14 02:00:00 12.2 0 Calma 6 Nordeste 0 -- -- 96
2018-11-14 01:00:00 12.1 2 Oeste 4 Oeste 0 -- -- 96
2018-11-14 00:00:00 12.2 0 Calma 5 Noroeste 0 -- -- 96
2018-11-13 23:00:00 11.9 3 Oeste 7 Oeste 0 -- -- 95
2018-11-13 22:00:00 12.5 4 Oeste 9 Oeste 0 -- -- 94
2018-11-13 21:00:00 12.8 2 Sur 6 Oeste 0 -- -- 94
2018-11-13 20:00:00 13.4 5 Oeste 10 Oeste 0 -- -- 92
2018-11-13 19:00:00 14.3 5 Oeste 9 Oeste 0 -- -- 88
2018-11-13 18:00:00 14.9 3 Oeste 6 Noroeste 0 -- -- 86
2018-11-13 17:00:00 17.7 0 Calma 6 Noroeste 0 -- -- 77
2018-11-13 16:00:00 18.1 4 Oeste 12 Noroeste 0 -- -- 74
2018-11-13 15:00:00 19 9 Oeste 14 Oeste 0 -- -- 69
2018-11-13 14:00:00 18.4 6 Sur 11 Sudeste 0 -- -- 71
2018-11-13 13:00:00 17 6 Sur 14 Sur 0 -- -- 77
2018-11-13 12:00:00 14.5 3 Este 9 Nordeste 0 -- -- 88
2018-11-13 11:00:00 12.9 6 Nordeste 10 Este 0 -- -- 95
2018-11-13 10:00:00 11.5 5 Nordeste 9 Nordeste 0 -- -- 99
2018-11-13 09:00:00 9.8 0 Calma 4 Este 0 -- -- 98
2018-11-13 08:00:00 9.3 0 Calma 6 Noroeste 0 -- -- 98
2018-11-13 07:00:00 9.9 5 Oeste 7 Oeste 0 -- -- 98
2018-11-13 06:00:00 9.7 0 Calma 5 Noroeste 0 -- -- 97
2018-11-13 05:00:00 10.2 2 Noroeste 6 Oeste 0 -- -- 97
2018-11-13 04:00:00 10.8 3 Noroeste 6 Oeste 0 -- -- 96
2018-11-13 03:00:00 11.5 2 Noroeste 5 Oeste 0 -- -- 97
2018-11-13 02:00:00 11.1 0 Calma 5 Nordeste 0 -- -- 95
2018-11-13 01:00:00 12.2 0 Calma 4 Noroeste 0 -- -- 95
2018-11-13 00:00:00 12.5 2 Noroeste 6 Noroeste 0 -- -- 94
2018-11-12 23:00:00 13.2 0 Calma 4 Norte 0 -- -- 93
2018-11-12 22:00:00 13.7 4 Noroeste 7 Noroeste 0 -- -- 93
2018-11-12 21:00:00 14.1 2 Este 6 Norte 0 -- -- 90
2018-11-12 20:00:00 14.5 0 Calma 6 Este 0 -- -- 89
2018-11-12 19:00:00 15.5 2 Noroeste 5 Oeste 0 -- -- 84
2018-11-12 18:00:00 17.7 0 Calma 8 Este 0 -- -- 75
2018-11-12 17:00:00 18.9 4 Sudeste 17 Este 0 -- -- 70
2018-11-12 16:00:00 19.8 6 Sudeste 15 Este 0 -- -- 65
2018-11-12 15:00:00 19.8 5 Este 19 Este 0 -- -- 65
2018-11-12 14:00:00 19.6 10 Este 26 Sudeste 0 -- -- 66
2018-11-12 13:00:00 19.4 18 Este 30 Sudeste 0 -- -- 66
2018-11-12 12:00:00 19 16 Este 31 Este 0 -- -- 67
2018-11-12 11:00:00 17.2 13 Este 20 Este 0 -- -- 76
2018-11-12 10:00:00 15.2 10 Este 17 Este 0 -- -- 83
2018-11-12 09:00:00 13.6 6 Nordeste 13 Este 0 -- -- 89
2018-11-12 08:00:00 13.4 7 Este 15 Este 0 -- -- 90
2018-11-12 07:00:00 13.2 8 Este 23 Este 0 -- -- 89
2018-11-12 06:00:00 13.2 6 Este 19 Este 0 -- -- 89
2018-11-12 05:00:00 13.7 8 Este 22 Este 0 -- -- 88
2018-11-12 04:00:00 13.8 8 Este 20 Este 0 -- -- 88
2018-11-12 03:00:00 14.2 11 Este 19 Este 0 -- -- 87
2018-11-12 02:00:00 13.7 8 Nordeste 14 Nordeste 0 -- -- 87
2018-11-12 01:00:00 13.6 2 Nordeste 19 Este 0 -- -- 86
2018-11-12 00:00:00 13.9 13 Este 21 Este 0 -- -- 86
2018-11-11 23:00:00 13.5 7 Este 18 Nordeste 0 -- -- 87
2018-11-11 22:00:00 13.7 12 Nordeste 25 Nordeste 0 -- -- 86
2018-11-11 21:00:00 15.9 16 Este 28 Este 0 -- -- 77
2018-11-11 20:00:00 14.4 5 Nordeste 11 Nordeste 0 -- -- 84
2018-11-11 19:00:00 15.4 4 Este 9 Este 0 -- -- 80
2018-11-11 18:00:00 17.4 6 Este 15 Este 0 -- -- 74
2018-11-11 17:00:00 19 8 Este 17 Este 0 -- -- 68
2018-11-11 16:00:00 19.4 11 Este 17 Este 0 -- -- 69
2018-11-11 15:00:00 18.8 10 Este 14 Este 0 -- -- 70
2018-11-11 14:00:00 17.6 5 Nordeste 10 Nordeste 0 -- -- 73
2018-11-11 13:00:00 16.6 4 Este 12 Nordeste 0 -- -- 76
2018-11-11 12:00:00 13.6 3 Sur 7 Sur 0 -- -- 92
2018-11-11 11:00:00 11.8 2 Nordeste 6 Nordeste 0 -- -- 97
2018-11-11 10:00:00 10.5 4 Nordeste 8 Nordeste 0 -- -- 98
2018-11-11 09:00:00 10.2 2 Noroeste 4 Noroeste 0 -- -- 98
2018-11-11 08:00:00 9.4 3 Noroeste 9 Sudoeste 0 -- -- 98
2018-11-11 07:00:00 8.7 0 Calma 9 Nordeste 0 -- -- 98
2018-11-11 06:00:00 8.9 5 Nordeste 9 Nordeste 0 -- -- 98
2018-11-11 05:00:00 8.6 5 Noroeste 9 Nordeste 0 -- -- 97
2018-11-11 04:00:00 8.7 5 Oeste 8 Noroeste 0 -- -- 97
2018-11-11 03:00:00 8.9 4 Noroeste 7 Oeste 0 -- -- 96
2018-11-11 02:00:00 9.2 6 Noroeste 9 Sudoeste 0 -- -- 95
2018-11-11 01:00:00 9.8 6 Oeste 9 Oeste 0 -- -- 95
2018-11-11 00:00:00 10.1 3 Noroeste 9 Noroeste 0 -- -- 95
2018-11-10 23:00:00 10.2 0 Calma 8 Oeste 0 -- -- 94
2018-11-10 22:00:00 10.6 4 Oeste 8 Oeste 0 -- -- 93
2018-11-10 21:00:00 11.3 3 Oeste 9 Noroeste 0 -- -- 91
2018-11-10 20:00:00 12.2 3 Oeste 7 Noroeste 0 -- -- 91
2018-11-10 19:00:00 13.4 0 Calma 2 Noroeste 0 -- -- 89
2018-11-10 18:00:00 13.7 0 Calma 4 Oeste 0.2 -- -- 88
2018-11-10 17:00:00 15.2 3 Norte 6 Nordeste 0 -- -- 79
2018-11-10 16:00:00 16.3 3 Nordeste 11 Este 0 -- -- 63
2018-11-10 15:00:00 16.7 5 Este 12 Este 0 -- -- 61
2018-11-10 14:00:00 16.3 5 Este 13 Este 0 -- -- 62
2018-11-10 13:00:00 14.8 7 Este 13 Nordeste 0 -- -- 66
2018-11-10 12:00:00 12.9 8 Nordeste 12 Nordeste 0 -- -- 76
2018-11-10 11:00:00 11.6 4 Este 14 Nordeste 0 -- -- 78
2018-11-10 10:00:00 9.4 2 Sudeste 8 Nordeste 0 -- -- 85
2018-11-10 09:00:00 7.7 3 Norte 6 Oeste 0 -- -- 93
2018-11-10 08:00:00 7.2 2 Este 9 Norte 0 -- -- 92
2018-11-10 07:00:00 7.3 4 Oeste 10 Oeste 0 -- -- 90
2018-11-10 06:00:00 8.7 5 Oeste 11 Oeste 0 -- -- 86
2018-11-10 05:00:00 7.9 2 Sudoeste 7 Oeste 0 -- -- 88
2018-11-10 04:00:00 8.2 5 Oeste 7 Oeste 0 -- -- 87
2018-11-10 03:00:00 8 4 Oeste 8 Oeste 0 -- -- 86
2018-11-10 02:00:00 8.1 2 Sur 9 Oeste 0 -- -- 83
2018-11-10 01:00:00 8.6 3 Este 9 Oeste 0 -- -- 82
2018-11-10 00:00:00 8.3 7 Oeste 13 Oeste 0 -- -- 81
2018-11-09 23:00:00 9.1 10 Oeste 15 Sudoeste 0 -- -- 73
2018-11-09 22:00:00 8.8 6 Oeste 10 Oeste 0 -- -- 76
2018-11-09 21:00:00 10.5 6 Sudoeste 16 Sudoeste 0 -- -- 68
2018-11-09 20:00:00 11.1 10 Oeste 35 Sudoeste 0 -- -- 66
2018-11-09 19:00:00 12.7 30 Sudoeste 38 Sudoeste 0 -- -- 62
2018-11-09 18:00:00 13.8 21 Sudoeste 29 Sudoeste 0 -- -- 63
2018-11-09 17:00:00 14.7 16 Oeste 34 Oeste 0 -- -- 59
2018-11-09 16:00:00 15.8 25 Oeste 39 Oeste 0 -- -- 57
2018-11-09 15:00:00 15.9 22 Oeste 45 Oeste 0 -- -- 60
2018-11-09 14:00:00 15.5 28 Oeste 47 Noroeste 0 -- -- 60
2018-11-09 13:00:00 15 31 Oeste 47 Oeste 0 -- -- 62
2018-11-09 12:00:00 14.4 27 Oeste 44 Oeste 0 -- -- 65
2018-11-09 11:00:00 12.7 31 Oeste 53 Oeste 0 -- -- 70
2018-11-09 10:00:00 11.8 24 Oeste 39 Noroeste 0 -- -- 74
2018-11-09 09:00:00 10.7 21 Oeste 33 Oeste 0 -- -- 77
2018-11-09 08:00:00 10.4 13 Oeste 37 Oeste 0 -- -- 77
2018-11-09 07:00:00 10.4 15 Oeste 29 Noroeste 0 -- -- 79
2018-11-09 06:00:00 10.8 12 Oeste 26 Oeste 0 -- -- 96
2018-11-09 05:00:00 11.1 4 Sudoeste 6 Nordeste 0.6 -- -- 96
2018-11-09 04:00:00 11.1 6 Nordeste 12 Nordeste 0.4 -- -- 96
2018-11-09 03:00:00 11.3 9 Oeste 14 Sudoeste 1.4 -- -- 94
2018-11-09 02:00:00 11.6 9 Sudoeste 26 Sudoeste 3 -- -- 92
2018-11-09 01:00:00 12.2 8 Oeste 12 Oeste 1.6 -- -- 96
2018-11-09 00:00:00 12.3 2 Oeste 4 Noroeste 1.8 -- -- 93